Terminal Aerodrome Forecast
Issued by NWS

Home | Current Version | Previous Version | Text Only | Print | Product List | Glossary On
Versions: 1 2 3 4 5 6 7 8 9 10 11 12 13 14 15 16 17 18 19
000
FTUS45 KBOU 221121
TAFBJC
TAF
KBJC 221121Z 2212/2312 29006KT P6SM SCT120 BKN170
     FM221400 VRB05KT P6SM SCT120 BKN200
     FM221700 08009KT P6SM SCT100 BKN120
     FM222300 12007KT P6SM SCT120 BKN200
     FM230300 VRB04KT P6SM FEW120 SCT200=

USA.gov is the U.S. government's official web portal to all federal, state and local government web resources and services.